Skip Navigation LinksHome page > Weather > Current weather Skip Navigation Links

Current Weather

Auckland, Sydney, Australia

For information only: do not use for flight planning or navigation.
Latest weather
Observation time Tuesday, November 30, 2021 7:00 AM AEDT
Local time Tuesday, November 30, 2021 7:39 AM AEDT
Flight conditions Visual Meteorological Conditions
Winds
Wind direction South (170°)
Wind speed 8 mph
Visibility 6.2 mi.
Sky condition
Ceiling 3,500 ft. broken clouds
Cloud layer scattered clouds 3,000 ft.
Cloud layer broken clouds 3,500 ft.
Temperature 66°F
Dewpoint 61°F
Altimeter 30.06 in.Hg
Derived measurements
Relative humidity 83%
Density altitude 569 ft.
METAR YSSY 292000Z 17007KT 9999 SCT030 BKN035 19/16 Q1018

Settings

Location code

InnerDrive.Weather 4.0.6770.0 Release CLR 4.0.30319.42000
Copyright ©2018 Inner Drive Technology. All rights reserved. Portions Copyright ©1986-2018 David Braverman.

Find weather

Site navigation


Skip Navigation Links

Place info

Page info

PayPal - The safer, easier way to pay online!

Return home.

Copyright ©2021 Inner Drive Technology. Purveyors of fine, hand-crafted computer software. Page printed 2021-11-29T20:39:53 UTC.